Time;durP1;ratioP1;P1;durP2;ratioP2;P2;SDS_P1;SDS_P2;PMS_P1;PMS_P2;Temp;Humidity;BMP_temperature;BMP_pressure;BME280_temperature;BME280_humidity;BME280_pressure;Samples;Min_cycle;Max_cycle;Signal;HPM_P1;HPM_P2
2022/04/15 00:00:15;;;;;;;29.23;21.47;;;;;;;7.94;99.13;102184.03;5030996;28;20472;-48
2022/04/15 00:02:43;;;;;;;23.70;19.17;;;;;;;7.90;98.99;102187.94;5031371;28;20458;-43
2022/04/15 00:07:56;;;;;;;28.67;20.40;;;;;;;7.85;98.70;102187.56;5030918;28;20940;-43
2022/04/15 00:10:24;;;;;;;24.23;19.37;;;;;;;7.79;98.45;102196.91;5031137;28;20494;-43
2022/04/15 00:12:55;;;;;;;27.33;19.37;;;;;;;7.77;97.81;102198.03;5031158;28;20438;-44
2022/04/15 00:15:24;;;;;;;19.57;16.50;;;;;;;7.77;97.14;102192.72;5032363;28;20438;-44
2022/04/15 00:17:53;;;;;;;21.07;17.10;;;;;;;7.71;96.49;102210.06;5034522;28;20440;-44
2022/04/15 00:20:20;;;;;;;19.73;17.70;;;;;;;7.69;96.59;102196.09;5034476;28;20945;-43
2022/04/15 00:22:48;;;;;;;20.20;15.77;;;;;;;7.63;96.96;102206.44;5034768;28;20436;-43
2022/04/15 00:25:16;;;;;;;24.40;19.10;;;;;;;7.57;96.97;102207.88;5034471;28;20432;-43
2022/04/15 00:27:43;;;;;;;20.67;18.50;;;;;;;7.55;95.96;102217.78;5034534;28;20439;-44
2022/04/15 00:30:12;;;;;;;21.03;18.93;;;;;;;7.57;95.32;102215.81;5033841;28;20482;-45
2022/04/15 00:32:41;;;;;;;23.80;18.80;;;;;;;7.52;95.34;102220.72;5034689;28;20431;-44
2022/04/15 00:35:10;;;;;;;25.67;21.40;;;;;;;7.51;94.81;102216.38;5034704;28;20440;-43
2022/04/15 00:37:38;;;;;;;20.17;18.17;;;;;;;7.50;95.02;102217.34;5034444;28;20448;-43
2022/04/15 00:40:09;;;;;;;21.33;19.13;;;;;;;7.51;93.34;102211.09;5033943;28;20830;-44
2022/04/15 00:42:37;;;;;;;22.23;19.83;;;;;;;7.44;93.70;102211.75;5034381;28;20432;-44
2022/04/15 00:45:09;;;;;;;28.70;20.00;;;;;;;7.45;92.44;102213.44;5031108;28;20444;-45
2022/04/15 00:47:48;;;;;;;28.87;21.40;;;;;;;7.44;91.97;102220.56;5034005;28;20448;-43
2022/04/15 00:50:16;;;;;;;22.07;19.87;;;;;;;7.46;91.93;102228.41;5033775;28;20476;-42
2022/04/15 00:52:47;;;;;;;28.67;22.50;;;;;;;7.42;92.23;102227.84;5034183;28;20432;-46
2022/04/15 00:55:16;;;;;;;26.10;20.83;;;;;;;7.45;91.74;102216.94;5034106;28;20427;-45
2022/04/15 00:57:45;;;;;;;25.03;20.90;;;;;;;7.41;92.71;102220.00;5034317;28;20443;-43
2022/04/15 01:00:14;;;;;;;26.57;22.57;;;;;;;7.42;91.99;102224.34;5033440;28;20444;-45
2022/04/15 01:02:44;;;;;;;25.60;21.67;;;;;;;7.39;93.05;102228.13;5034101;28;20438;-45
2022/04/15 01:05:14;;;;;;;27.43;21.67;;;;;;;7.45;92.47;102229.38;5033878;28;20967;-43
2022/04/15 01:07:43;;;;;;;22.23;19.80;;;;;;;7.43;93.50;102226.03;5033916;28;20439;-43
2022/04/15 01:10:13;;;;;;;26.00;20.43;;;;;;;7.38;93.48;102220.31;5033229;28;20480;-47
2022/04/15 01:12:44;;;;;;;23.30;20.30;;;;;;;7.35;93.62;102224.06;5033953;28;20424;-43
2022/04/15 01:15:34;;;;;;;22.17;19.40;;;;;;;7.33;94.54;102227.84;5033981;28;20436;-44
2022/04/15 01:18:03;;;;;;;23.53;20.40;;;;;;;7.30;94.75;102234.28;5033147;28;20436;-43
2022/04/15 01:20:31;;;;;;;20.10;18.00;;;;;;;7.27;94.10;102236.34;5033575;28;20428;-44
2022/04/15 01:23:06;;;;;;;35.07;19.87;;;;;;;7.32;93.38;102237.63;5033909;28;20424;-46
2022/04/15 01:25:34;;;;;;;29.43;21.17;;;;;;;7.28;94.96;102243.34;5033489;28;20928;-45
2022/04/15 01:28:01;;;;;;;29.50;20.67;;;;;;;7.24;95.49;102243.63;5032309;28;20782;-46
2022/04/15 01:30:29;;;;;;;25.67;20.23;;;;;;;7.30;93.55;102244.88;5033243;28;20841;-46
2022/04/15 01:32:56;;;;;;;25.20;21.03;;;;;;;7.31;93.63;102249.22;5033744;28;20439;-44
2022/04/15 01:35:25;;;;;;;23.37;20.40;;;;;;;7.33;93.70;102252.56;5033749;28;20462;-51
2022/04/15 01:37:52;;;;;;;24.70;21.83;;;;;;;7.41;93.55;102246.56;5033139;28;20435;-43
2022/04/15 01:40:21;;;;;;;24.43;21.77;;;;;;;7.42;93.50;102257.03;5033265;28;20431;-46
2022/04/15 01:42:49;;;;;;;24.23;21.70;;;;;;;7.42;94.61;102264.16;5033335;28;20440;-47
2022/04/15 01:45:17;;;;;;;27.33;22.47;;;;;;;7.40;94.27;102264.31;5053717;23;20777;-46
2022/04/15 01:47:45;;;;;;;28.90;22.50;;;;;;;7.39;94.76;102256.47;5059837;28;20936;-44
2022/04/15 01:50:12;;;;;;;27.53;23.10;;;;;;;7.35;94.54;102261.22;5052779;28;20475;-47
2022/04/15 01:52:40;;;;;;;28.70;23.17;;;;;;;7.32;93.98;102258.84;5053248;28;20423;-45
2022/04/15 01:55:08;;;;;;;29.80;23.13;;;;;;;7.35;93.22;102257.75;5053180;28;20435;-47
2022/04/15 01:57:37;;;;;;;28.77;23.30;;;;;;;7.40;92.64;102269.63;5032988;28;20446;-45
2022/04/15 02:00:06;;;;;;;31.00;22.60;;;;;;;7.41;94.05;102273.94;5032521;28;20471;-48
2022/04/15 02:02:33;;;;;;;28.20;21.93;;;;;;;7.39;93.37;102267.94;5033544;28;20434;-46
2022/04/15 02:05:01;;;;;;;25.57;22.40;;;;;;;7.41;93.95;102273.09;5033313;28;20443;-50
2022/04/15 02:07:29;;;;;;;25.77;22.67;;;;;;;7.41;94.12;102270.44;5032808;28;21040;-46
2022/04/15 02:09:56;;;;;;;29.90;24.00;;;;;;;7.43;94.47;102282.63;5032211;28;20832;-46
2022/04/15 02:12:24;;;;;;;29.07;23.00;;;;;;;7.36;94.35;102285.94;5032859;28;20436;-46
2022/04/15 02:14:53;;;;;;;24.97;22.10;;;;;;;7.37;93.75;102285.81;5033019;28;20801;-49
2022/04/15 02:17:21;;;;;;;23.83;20.87;;;;;;;7.36;92.57;102289.44;5032828;28;20478;-47
2022/04/15 02:19:50;;;;;;;24.10;21.50;;;;;;;7.42;91.83;102301.31;5032201;28;20503;-48
2022/04/15 02:22:18;;;;;;;23.03;20.63;;;;;;;7.38;93.29;102291.97;5032588;28;20432;-47
2022/04/15 02:24:46;;;;;;;29.20;21.40;;;;;;;7.35;92.62;102300.22;5032619;28;20440;-46
2022/04/15 02:27:13;;;;;;;25.77;21.03;;;;;;;7.33;90.76;102305.66;5032839;28;20460;-46
2022/04/15 02:29:41;;;;;;;25.70;22.93;;;;;;;7.35;91.12;102310.81;5032097;28;20468;-46
2022/04/15 02:32:10;;;;;;;28.13;22.63;;;;;;;7.33;89.82;102303.00;5032199;28;21000;-46
2022/04/15 02:34:38;;;;;;;29.03;22.20;;;;;;;7.33;90.37;102307.44;5032562;28;20436;-45
2022/04/15 02:37:05;;;;;;;30.13;23.87;;;;;;;7.37;89.94;102304.41;5032365;28;20989;-47
2022/04/15 02:39:33;;;;;;;34.00;23.07;;;;;;;7.23;88.57;102300.31;5031728;28;20464;-44
2022/04/15 02:42:01;;;;;;;33.23;23.50;;;;;;;7.24;88.31;102301.16;5032306;28;20519;-44
2022/04/15 02:44:30;;;;;;;34.70;25.03;;;;;;;7.24;86.49;102311.78;5032478;28;20441;-44
2022/04/15 02:46:58;;;;;;;27.17;24.00;;;;;;;7.30;87.41;102305.91;5040191;28;20467;-44
2022/04/15 02:49:28;;;;;;;37.83;27.47;;;;;;;7.32;84.82;102309.25;5050128;28;20463;-48
2022/04/15 02:51:56;;;;;;;36.57;25.27;;;;;;;7.26;84.90;102320.41;5052066;28;20501;-49
2022/04/15 02:54:24;;;;;;;34.33;25.60;;;;;;;7.28;84.47;102318.50;5052326;28;20439;-46
2022/04/15 02:56:52;;;;;;;39.77;26.00;;;;;;;7.33;84.42;102310.09;5051955;28;20455;-47
2022/04/15 02:59:20;;;;;;;35.77;24.87;;;;;;;7.31;83.52;102315.56;5051555;28;20463;-46
2022/04/15 03:01:49;;;;;;;38.03;26.43;;;;;;;7.32;84.57;102321.72;5051698;28;20510;-45
2022/04/15 03:04:17;;;;;;;38.00;26.10;;;;;;;7.28;85.07;102315.00;5051949;28;20435;-46
2022/04/15 03:06:46;;;;;;;38.10;26.77;;;;;;;7.30;82.79;102313.03;5052045;28;20450;-44
2022/04/15 03:09:14;;;;;;;37.50;26.70;;;;;;;7.28;83.22;102315.00;5051357;28;20984;-48
2022/04/15 03:11:41;;;;;;;37.47;25.77;;;;;;;7.34;82.95;102317.94;5051451;28;20471;-45
2022/04/15 03:14:09;;;;;;;37.53;26.37;;;;;;;7.36;84.70;102325.75;5051903;28;20446;-45
2022/04/15 03:16:36;;;;;;;42.70;26.57;;;;;;;7.28;86.86;102326.44;5051609;28;20458;-45
2022/04/15 03:19:04;;;;;;;39.90;27.20;;;;;;;7.28;88.49;102321.16;5051309;28;20833;-45
2022/04/15 03:21:32;;;;;;;39.37;26.90;;;;;;;7.17;91.88;102327.38;5030497;28;20990;-44
2022/04/15 03:24:01;;;;;;;40.30;28.73;;;;;;;7.15;91.92;102326.69;5031180;28;20442;-46
2022/04/15 03:26:29;;;;;;;37.57;26.23;;;;;;;7.14;91.96;102324.16;5031704;28;20451;-44
2022/04/15 03:28:57;;;;;;;38.37;27.30;;;;;;;7.17;92.63;102335.34;5027976;28;20468;-45
2022/04/15 03:31:25;;;;;;;44.13;27.77;;;;;;;7.09;95.03;102335.19;5018278;28;20476;-52
2022/04/15 03:33:52;;;;;;;33.63;25.77;;;;;;;6.98;96.24;102337.97;5031397;28;20937;-45
2022/04/15 03:36:20;;;;;;;32.37;24.87;;;;;;;6.94;95.39;102339.19;5022947;28;20448;-46
2022/04/15 03:38:48;;;;;;;30.80;24.03;;;;;;;6.94;96.39;102341.00;5031045;28;20463;-47
2022/04/15 03:41:17;;;;;;;33.13;22.87;;;;;;;6.89;96.75;102340.56;5031144;28;20428;-47
2022/04/15 03:43:44;;;;;;;27.37;23.63;;;;;;;6.85;96.40;102345.28;5023820;28;20437;-46
2022/04/15 03:46:12;;;;;;;32.20;25.30;;;;;;;6.85;96.36;102345.28;5036220;28;20464;-45
2022/04/15 03:48:40;;;;;;;31.70;25.83;;;;;;;6.88;96.30;102347.69;5024008;28;20464;-46
2022/04/15 03:51:08;;;;;;;34.60;25.63;;;;;;;6.91;96.17;102350.06;5033879;28;20432;-46
2022/04/15 03:53:36;;;;;;;34.40;26.07;;;;;;;6.89;97.13;102354.69;5034603;28;20432;-46
2022/04/15 03:56:06;;;;;;;33.70;26.07;;;;;;;6.95;97.39;102351.50;5034899;28;20999;-45
2022/04/15 03:58:35;;;;;;;28.40;24.00;;;;;;;6.96;97.64;102353.16;5034277;28;20537;-44
2022/04/15 04:01:03;;;;;;;36.30;26.37;;;;;;;6.99;98.13;102352.06;5034822;28;20444;-46
2022/04/15 04:03:31;;;;;;;34.33;24.33;;;;;;;6.97;98.90;102357.50;5035266;28;20443;-48
2022/04/15 04:05:58;;;;;;;29.23;23.63;;;;;;;6.93;98.95;102369.31;5035080;28;20586;-45
2022/04/15 04:08:26;;;;;;;26.97;22.13;;;;;;;6.93;99.29;102368.50;5034753;28;20825;-47
2022/04/15 04:10:53;;;;;;;26.37;23.03;;;;;;;6.92;99.45;102361.53;5034403;28;20454;-49
2022/04/15 04:13:22;;;;;;;28.20;24.50;;;;;;;6.91;99.76;102365.97;5034845;28;21003;-47
2022/04/15 04:15:51;;;;;;;30.77;24.37;;;;;;;6.96;98.80;102368.25;5021084;28;20548;-45
2022/04/15 04:18:21;;;;;;;27.63;22.50;;;;;;;6.98;99.38;102369.78;5032024;28;20456;-46
2022/04/15 04:20:49;;;;;;;28.40;23.80;;;;;;;6.84;99.45;102364.81;5034823;28;20790;-45
2022/04/15 04:23:17;;;;;;;25.33;22.47;;;;;;;6.89;99.66;102378.53;5020318;28;20826;-48
2022/04/15 04:25:45;;;;;;;27.93;23.87;;;;;;;6.89;99.74;102370.59;5033324;28;20452;-45
2022/04/15 04:28:12;;;;;;;31.77;23.83;;;;;;;6.92;98.77;102378.28;5026933;28;20980;-47
2022/04/15 04:30:40;;;;;;;28.00;23.37;;;;;;;6.88;100.00;102382.16;5027445;28;20913;-45
2022/04/15 04:33:09;;;;;;;28.43;23.20;;;;;;;6.93;99.86;102387.06;5033281;28;20806;-44
2022/04/15 04:35:37;;;;;;;32.73;26.50;;;;;;;6.96;99.36;102387.63;5034673;28;20455;-48
2022/04/15 04:38:06;;;;;;;32.80;25.20;;;;;;;6.98;100.00;102392.81;5021341;28;20439;-47
2022/04/15 04:40:34;;;;;;;30.00;25.40;;;;;;;6.94;100.00;102386.09;5031602;28;20515;-48
2022/04/15 04:43:03;;;;;;;33.60;26.47;;;;;;;7.03;100.00;102388.78;5026591;28;20429;-46
2022/04/15 04:45:32;;;;;;;32.07;27.03;;;;;;;7.04;100.00;102397.59;5031146;28;20836;-47
2022/04/15 04:48:01;;;;;;;34.13;26.50;;;;;;;7.06;100.00;102403.59;5042879;28;20929;-44
2022/04/15 04:50:30;;;;;;;34.77;26.93;;;;;;;7.04;100.00;102395.78;5022771;28;20429;-45
2022/04/15 04:52:59;;;;;;;33.07;24.57;;;;;;;7.10;100.00;102405.00;5021749;28;20477;-46
2022/04/15 04:55:27;;;;;;;31.13;25.83;;;;;;;7.07;100.00;102406.13;5023323;28;20856;-46
2022/04/15 04:57:55;;;;;;;36.07;24.60;;;;;;;7.13;100.00;102404.75;5033634;28;20797;-47
2022/04/15 05:00:23;;;;;;;32.50;24.23;;;;;;;7.10;100.00;102405.84;5034071;28;20432;-46
2022/04/15 05:02:51;;;;;;;32.03;24.60;;;;;;;7.08;100.00;102413.09;5007757;28;20455;-47
2022/04/15 05:05:19;;;;;;;32.33;24.77;;;;;;;7.06;100.00;102417.69;5034022;28;20436;-45
2022/04/15 05:07:48;;;;;;;29.90;24.53;;;;;;;7.09;100.00;102427.19;5033921;28;20443;-46
2022/04/15 05:10:15;;;;;;;32.30;24.83;;;;;;;7.13;99.94;102428.63;5033196;28;20493;-45
2022/04/15 05:12:45;;;;;;;32.00;24.57;;;;;;;7.09;100.00;102433.34;5033132;28;20480;-46
2022/04/15 05:15:12;;;;;;;37.67;23.90;;;;;;;7.10;100.00;102432.38;5033779;28;20429;-46
2022/04/15 05:17:40;;;;;;;34.93;25.40;;;;;;;7.07;100.00;102431.81;5033228;28;20439;-49
2022/04/15 05:20:08;;;;;;;30.40;25.67;;;;;;;7.11;100.00;102433.19;5033555;28;20436;-47
2022/04/15 05:22:36;;;;;;;25.77;22.83;;;;;;;7.13;100.00;102432.13;5018031;28;20455;-45
2022/04/15 05:25:06;;;;;;;34.20;24.40;;;;;;;7.19;100.00;102444.84;5021460;28;20819;-46
2022/04/15 05:27:34;;;;;;;31.30;24.43;;;;;;;7.20;100.00;102448.31;5033396;28;20467;-45
2022/04/15 05:30:01;;;;;;;31.10;22.60;;;;;;;7.20;100.00;102449.16;5033497;28;20437;-48
2022/04/15 05:32:29;;;;;;;33.50;24.07;;;;;;;7.18;100.00;102450.28;5032901;28;20479;-45
2022/04/15 05:34:56;;;;;;;30.80;24.70;;;;;;;7.20;100.00;102451.81;5021771;28;20433;-45
2022/04/15 05:37:24;;;;;;;29.37;24.20;;;;;;;7.20;100.00;102453.63;5015577;28;20467;-46
2022/04/15 05:39:51;;;;;;;31.70;25.00;;;;;;;7.28;100.00;102459.13;5014086;28;20448;-47
2022/04/15 05:42:20;;;;;;;30.37;24.27;;;;;;;7.33;100.00;102466.69;5028110;28;20456;-44
2022/04/15 05:44:48;;;;;;;32.13;23.20;;;;;;;7.36;100.00;102466.41;5027206;28;20428;-48
2022/04/15 05:47:16;;;;;;;33.93;24.33;;;;;;;7.29;100.00;102471.41;5036579;28;20467;-45
2022/04/15 05:49:43;;;;;;;30.83;24.40;;;;;;;7.31;100.00;102485.41;5022069;28;20513;-45
2022/04/15 05:52:11;;;;;;;28.73;23.67;;;;;;;7.37;100.00;102473.41;5032292;28;20998;-45
2022/04/15 05:54:38;;;;;;;33.27;24.87;;;;;;;7.43;100.00;102486.16;5032427;28;20436;-45
2022/04/15 05:57:06;;;;;;;28.80;24.77;;;;;;;7.48;100.00;102494.53;5022862;28;20465;-46
2022/04/15 05:59:35;;;;;;;31.70;24.63;;;;;;;7.46;100.00;102502.66;5033090;28;20435;-47
2022/04/15 06:02:03;;;;;;;33.63;24.83;;;;;;;7.42;100.00;102500.38;5032039;28;20464;-47
2022/04/15 06:04:30;;;;;;;30.50;22.50;;;;;;;7.44;100.00;102512.53;5032965;28;20459;-46
2022/04/15 06:06:58;;;;;;;30.47;22.77;;;;;;;7.48;100.00;102508.66;5032115;28;20463;-46
2022/04/15 06:09:26;;;;;;;29.10;25.00;;;;;;;7.50;100.00;102517.31;5028464;28;20452;-47
2022/04/15 06:11:55;;;;;;;30.73;23.57;;;;;;;7.56;100.00;102514.13;5026171;28;20980;-48
2022/04/15 06:14:23;;;;;;;27.33;22.40;;;;;;;7.55;99.66;102519.59;5023998;28;20479;-50
2022/04/15 06:16:53;;;;;;;29.43;23.80;;;;;;;7.57;100.00;102522.94;5032647;28;20467;-44
2022/04/15 06:19:22;;;;;;;28.97;22.57;;;;;;;7.57;99.76;102528.25;5032339;28;20517;-44
2022/04/15 06:21:52;;;;;;;27.57;22.63;;;;;;;7.66;99.74;102533.59;5028119;28;20465;-47
2022/04/15 06:24:20;;;;;;;33.37;23.17;;;;;;;7.59;99.61;102535.09;5032049;28;20434;-45
2022/04/15 06:26:47;;;;;;;27.93;21.60;;;;;;;7.68;100.00;102541.41;5032421;28;20822;-46
2022/04/15 06:29:16;;;;;;;28.00;21.87;;;;;;;7.62;99.46;102548.13;5021394;28;20437;-49
2022/04/15 06:31:43;;;;;;;25.50;22.20;;;;;;;7.64;99.64;102540.88;5022541;28;20531;-45
2022/04/15 06:34:13;;;;;;;26.60;21.77;;;;;;;7.74;99.55;102540.88;5026885;28;20472;-49
2022/04/15 06:36:40;;;;;;;27.87;21.10;;;;;;;7.76;100.00;102549.59;5029385;28;20448;-49
2022/04/15 06:39:08;;;;;;;26.47;21.37;;;;;;;7.85;100.00;102539.97;5032014;28;20425;-48
2022/04/15 06:41:36;;;;;;;27.10;21.73;;;;;;;7.86;99.10;102546.94;5031342;28;20901;-43
2022/04/15 06:44:04;;;;;;;24.70;19.57;;;;;;;7.87;98.52;102549.47;5029413;28;20432;-45
2022/04/15 06:46:31;;;;;;;27.07;20.60;;;;;;;7.91;99.09;102558.00;5032180;28;20817;-47
2022/04/15 06:48:59;;;;;;;22.40;19.87;;;;;;;7.95;99.25;102554.94;5037001;28;20443;-46
2022/04/15 06:51:28;;;;;;;31.83;20.93;;;;;;;8.05;99.16;102558.47;5030506;28;20432;-47
2022/04/15 06:53:56;;;;;;;25.93;20.60;;;;;;;8.02;98.53;102566.72;5028483;28;20474;-46
2022/04/15 06:56:24;;;;;;;25.67;19.20;;;;;;;8.08;98.90;102566.19;5039425;28;20459;-46
2022/04/15 06:58:51;;;;;;;22.77;19.60;;;;;;;8.07;98.00;102566.28;5027947;28;20451;-47
2022/04/15 07:01:19;;;;;;;26.43;18.93;;;;;;;8.18;98.96;102571.50;5026736;28;20432;-45
2022/04/15 07:03:47;;;;;;;23.30;19.00;;;;;;;8.14;98.10;102572.75;5018008;28;20430;-47
2022/04/15 07:06:14;;;;;;;22.03;16.50;;;;;;;8.18;98.12;102572.31;5016529;28;20816;-43
2022/04/15 07:08:43;;;;;;;20.23;18.13;;;;;;;8.18;98.25;102577.66;5031539;28;20961;-45
2022/04/15 07:11:11;;;;;;;19.40;16.23;;;;;;;8.26;98.78;102580.47;5030773;28;20432;-45
2022/04/15 07:13:38;;;;;;;22.70;17.90;;;;;;;8.29;98.26;102580.25;5031049;28;21048;-48
2022/04/15 07:16:06;;;;;;;19.63;17.30;;;;;;;8.28;97.57;102586.53;5031305;28;20507;-46
2022/04/15 07:18:34;;;;;;;20.60;18.50;;;;;;;8.22;97.30;102579.06;5030067;28;21301;-44
2022/04/15 07:21:02;;;;;;;22.60;17.80;;;;;;;8.15;97.70;102583.22;5031007;28;20436;-49
2022/04/15 07:23:29;;;;;;;21.40;18.73;;;;;;;8.20;97.92;102590.81;5022193;28;20535;-46
2022/04/15 07:25:58;;;;;;;19.77;17.70;;;;;;;8.20;98.22;102594.31;5025794;28;20546;-48
2022/04/15 07:28:26;;;;;;;23.03;18.50;;;;;;;8.24;97.61;102593.03;5035677;28;20455;-47
2022/04/15 07:30:53;;;;;;;25.57;18.30;;;;;;;8.30;97.47;102597.03;5031395;28;20799;-48
2022/04/15 07:33:21;;;;;;;21.27;17.63;;;;;;;8.38;97.09;102605.16;5033807;28;20479;-46
2022/04/15 07:35:49;;;;;;;21.20;18.80;;;;;;;8.50;97.03;102614.69;5031768;28;20453;-45
2022/04/15 07:38:16;;;;;;;21.60;17.63;;;;;;;8.41;96.54;102614.66;5030419;28;20436;-45
2022/04/15 07:40:44;;;;;;;20.27;18.20;;;;;;;8.41;96.59;102609.34;5020508;28;20444;-44
2022/04/15 07:43:13;;;;;;;21.47;18.67;;;;;;;8.36;96.21;102620.41;5026270;28;20893;-49
2022/04/15 07:45:40;;;;;;;20.90;18.60;;;;;;;8.37;97.03;102614.09;5025352;28;20562;-46
2022/04/15 07:48:10;;;;;;;23.70;19.60;;;;;;;8.38;96.88;102620.25;5055811;22;20491;-49
2022/04/15 07:50:39;;;;;;;19.73;17.63;;;;;;;8.30;97.55;102632.41;5017594;28;20439;-49
2022/04/15 07:53:06;;;;;;;21.20;17.77;;;;;;;8.29;97.47;102625.44;5019818;28;20472;-47
2022/04/15 07:55:34;;;;;;;24.30;19.50;;;;;;;8.22;98.03;102631.38;5018349;28;20455;-49
2022/04/15 07:58:02;;;;;;;24.60;19.47;;;;;;;8.21;98.29;102641.16;5031729;28;20459;-48
2022/04/15 08:00:34;;;;;;;21.93;18.87;;;;;;;8.22;98.60;102647.31;5034734;28;20432;-47
2022/04/15 08:03:02;;;;;;;24.30;19.30;;;;;;;8.21;98.59;102643.81;5034220;28;20457;-47
2022/04/15 08:05:29;;;;;;;21.23;18.83;;;;;;;8.12;97.43;102644.63;5035041;28;20801;-49
2022/04/15 08:07:57;;;;;;;24.17;18.87;;;;;;;8.01;98.46;102654.50;5034883;28;21008;-45
2022/04/15 08:10:24;;;;;;;27.27;22.20;;;;;;;7.96;98.93;102654.94;5033784;28;20932;-47
2022/04/15 08:12:52;;;;;;;24.77;19.93;;;;;;;7.98;99.50;102647.66;5034322;28;20460;-47
2022/04/15 08:15:20;;;;;;;23.87;20.47;;;;;;;8.00;99.42;102650.19;5034560;28;20479;-49
2022/04/15 08:17:49;;;;;;;25.87;19.03;;;;;;;7.97;99.06;102659.28;5022008;28;20470;-45
2022/04/15 08:20:16;;;;;;;25.73;21.60;;;;;;;8.04;98.86;102660.41;5033344;28;20813;-47
2022/04/15 08:22:44;;;;;;;24.40;21.67;;;;;;;8.07;99.19;102651.31;5033617;28;20843;-46
2022/04/15 08:25:11;;;;;;;26.13;20.77;;;;;;;8.09;99.53;102665.34;5033522;28;20428;-48
2022/04/15 08:27:39;;;;;;;32.37;23.73;;;;;;;8.08;99.22;102661.84;5033589;28;20806;-49
2022/04/15 08:30:08;;;;;;;30.60;23.40;;;;;;;8.10;99.40;102669.66;5033431;28;20440;-48
2022/04/15 08:32:35;;;;;;;26.27;21.30;;;;;;;8.14;99.22;102671.09;5033827;28;20470;-49
2022/04/15 08:35:12;;;;;;;27.90;21.97;;;;;;;8.29;99.26;102667.97;5034281;28;20479;-53
2022/04/15 08:37:40;;;;;;;28.83;23.40;;;;;;;8.38;98.99;102662.81;5034100;28;20460;-48
2022/04/15 08:40:09;;;;;;;29.60;25.37;;;;;;;8.47;98.30;102673.47;5034351;28;20446;-52
2022/04/15 08:42:37;;;;;;;29.10;24.30;;;;;;;8.41;97.70;102676.66;5033754;28;20460;-46
2022/04/15 08:45:08;;;;;;;32.13;23.90;;;;;;;8.38;97.55;102692.03;5034117;28;20424;-46
2022/04/15 08:47:36;;;;;;;30.60;22.77;;;;;;;8.36;98.12;102686.88;5046487;28;20459;-48
2022/04/15 08:50:05;;;;;;;27.13;21.97;;;;;;;8.21;99.05;102696.16;5034355;28;20439;-46
2022/04/15 08:52:34;;;;;;;25.83;21.17;;;;;;;8.14;98.80;102698.50;5031821;28;20471;-46
2022/04/15 08:55:02;;;;;;;30.10;21.77;;;;;;;8.07;99.56;102707.97;5034139;28;20467;-47
2022/04/15 08:57:30;;;;;;;28.50;20.50;;;;;;;8.04;99.47;102710.03;5033901;28;20487;-49
2022/04/15 08:59:58;;;;;;;28.17;21.37;;;;;;;8.05;99.56;102719.69;5033846;28;20925;-48
2022/04/15 09:02:32;;;;;;;27.83;20.07;;;;;;;8.07;99.36;102717.75;5031066;28;20471;-46
2022/04/15 09:05:00;;;;;;;26.57;20.17;;;;;;;8.09;99.93;102724.63;5033842;28;20432;-48
2022/04/15 09:07:28;;;;;;;25.73;19.23;;;;;;;8.10;99.57;102726.31;5033294;28;20466;-47
2022/04/15 09:10:04;;;;;;;31.70;20.70;;;;;;;8.26;99.02;102725.81;5033574;28;20428;-45
2022/04/15 09:12:35;;;;;;;28.10;18.73;;;;;;;8.40;98.61;102719.31;5032695;28;20463;-50
2022/04/15 09:15:11;;;;;;;26.53;19.70;;;;;;;8.51;97.24;102728.03;5030640;28;20841;-48
2022/04/15 09:17:46;;;;;;;23.13;20.10;;;;;;;8.54;96.87;102729.63;5036215;28;20562;-48
2022/04/15 09:20:14;;;;;;;26.40;20.60;;;;;;;8.54;96.88;102745.56;5032770;28;20787;-53
2022/04/15 09:22:41;;;;;;;26.30;19.73;;;;;;;8.59;96.55;102743.34;5031540;28;20464;-48
2022/04/15 09:25:12;;;;;;;18.77;16.80;;;;;;;8.61;95.10;102752.00;5034287;28;20440;-49
2022/04/15 09:27:40;;;;;;;18.87;16.90;;;;;;;8.54;95.45;102767.66;5031784;28;20456;-46
2022/04/15 09:30:08;;;;;;;18.10;16.20;;;;;;;8.57;95.22;102753.28;5032068;28;20459;-52
2022/04/15 09:32:40;;;;;;;16.60;15.00;;;;;;;8.61;94.34;102752.84;5031351;28;20468;-51
2022/04/15 09:35:10;;;;;;;20.40;15.73;;;;;;;8.75;94.04;102755.13;5032671;28;20476;-47
2022/04/15 09:37:39;;;;;;;18.80;16.90;;;;;;;8.80;94.44;102758.25;5032845;28;20459;-47
2022/04/15 09:40:11;;;;;;;17.93;16.00;;;;;;;8.78;93.37;102767.34;5033250;28;20860;-48
2022/04/15 09:42:44;;;;;;;16.30;14.50;;;;;;;8.80;93.38;102770.69;5028586;28;21027;-50
2022/04/15 09:45:14;;;;;;;17.27;15.57;;;;;;;8.88;93.87;102768.19;5032771;28;20443;-47
2022/04/15 09:47:42;;;;;;;16.87;15.47;;;;;;;8.95;93.37;102774.66;5036797;28;20467;-48
2022/04/15 09:50:22;;;;;;;17.47;15.53;;;;;;;9.01;92.55;102770.59;5033072;28;20439;-50
2022/04/15 09:52:51;;;;;;;16.83;15.30;;;;;;;8.94;91.68;102777.44;5032701;28;20448;-53
2022/04/15 09:55:21;;;;;;;17.70;15.03;;;;;;;9.08;92.52;102777.06;5032804;28;20472;-52
2022/04/15 09:57:50;;;;;;;16.43;14.73;;;;;;;9.20;92.23;102781.31;5032290;28;21020;-45
2022/04/15 10:00:20;;;;;;;16.70;15.00;;;;;;;9.25;91.30;102782.56;5032415;28;20444;-47
2022/04/15 10:02:49;;;;;;;17.30;15.60;;;;;;;9.14;91.53;102788.00;5032165;28;20462;-51
2022/04/15 10:05:20;;;;;;;15.97;14.47;;;;;;;9.21;91.89;102786.47;5032867;28;20439;-48
2022/04/15 10:07:50;;;;;;;13.80;12.50;;;;;;;9.20;90.78;102792.75;5032700;28;20460;-50
2022/04/15 10:10:18;;;;;;;13.77;12.73;;;;;;;9.23;90.13;102796.97;5032565;28;20436;-48
2022/04/15 10:12:47;;;;;;;14.50;13.03;;;;;;;9.39;89.60;102798.13;5031484;28;20985;-48
2022/04/15 10:15:18;;;;;;;14.53;13.13;;;;;;;9.51;88.09;102797.97;5032252;28;20985;-46
2022/04/15 10:17:46;;;;;;;15.37;14.10;;;;;;;9.51;87.87;102793.50;5032667;28;20460;-47
2022/04/15 10:20:14;;;;;;;13.60;12.27;;;;;;;9.56;88.66;102812.56;5032382;28;20810;-48
2022/04/15 10:22:42;;;;;;;15.77;14.37;;;;;;;9.53;87.84;102801.38;5031833;28;20452;-47
2022/04/15 10:25:10;;;;;;;13.63;12.33;;;;;;;9.52;88.01;102797.00;5032192;28;20435;-51
2022/04/15 10:27:38;;;;;;;14.07;12.77;;;;;;;9.25;89.21;102822.50;5031681;28;20992;-47
2022/04/15 10:30:18;;;;;;;12.83;11.63;;;;;;;9.14;89.71;102806.63;5031799;28;20443;-53
2022/04/15 10:32:51;;;;;;;15.23;12.80;;;;;;;9.24;90.75;102809.31;5031958;28;20467;-48
2022/04/15 10:35:24;;;;;;;12.63;11.63;;;;;;;9.40;90.03;102799.81;5032065;28;20479;-53
2022/04/15 10:37:58;;;;;;;14.63;13.33;;;;;;;9.48;88.27;102812.44;5032369;28;20456;-47
2022/04/15 10:40:29;;;;;;;15.93;14.43;;;;;;;9.51;88.92;102803.31;5031667;28;20542;-49
2022/04/15 10:43:04;;;;;;;16.03;14.33;;;;;;;9.80;89.21;102799.66;5031055;28;20489;-47
2022/04/15 10:45:38;;;;;;;14.30;13.20;;;;;;;10.02;86.71;102810.03;5032423;28;20419;-52
2022/04/15 10:48:06;;;;;;;13.50;12.13;;;;;;;9.94;86.26;102796.59;5031734;28;20930;-49
2022/04/15 10:50:35;;;;;;;12.90;11.80;;;;;;;10.22;86.10;102800.19;5031739;28;20432;-50
2022/04/15 10:53:29;;;;;;;15.87;14.47;;;;;;;10.26;86.13;102795.41;5022127;28;20460;-47
2022/04/15 10:56:06;;;;;;;14.50;13.20;;;;;;;10.74;83.73;102803.22;5029166;28;20475;-50
2022/04/15 11:02:02;;;;;;;13.40;12.03;;;;;;;10.80;81.87;102807.97;5023983;28;20455;-52
2022/04/15 11:04:36;;;;;;;13.90;12.20;;;;;;;10.74;81.16;102803.22;5031786;28;20432;-47
2022/04/15 11:07:15;;;;;;;14.73;13.30;;;;;;;10.37;82.93;102797.88;5028615;28;20452;-50
2022/04/15 11:09:43;;;;;;;15.33;13.80;;;;;;;10.68;81.74;102807.34;5031492;28;20432;-52
2022/04/15 11:12:11;;;;;;;14.90;13.50;;;;;;;10.35;83.18;102822.06;5031038;28;20464;-48
2022/04/15 11:14:44;;;;;;;14.47;13.07;;;;;;;10.61;82.93;102827.56;5031771;28;20474;-50
2022/04/15 11:17:13;;;;;;;14.87;13.33;;;;;;;10.88;80.95;102808.06;5022430;28;20486;-52
2022/04/15 11:19:43;;;;;;;13.40;12.20;;;;;;;10.71;79.51;102825.72;5031344;28;20439;-50
2022/04/15 11:22:10;;;;;;;15.83;14.23;;;;;;;10.98;80.90;102819.56;5030565;28;20452;-48
2022/04/15 11:24:41;;;;;;;14.87;13.57;;;;;;;11.07;79.42;102819.50;5031175;28;20439;-46
2022/04/15 11:27:15;;;;;;;17.57;13.63;;;;;;;10.65;81.24;102822.78;5031581;28;20814;-46